Time;durP1;ratioP1;P1;durP2;ratioP2;P2;SDS_P1;SDS_P2;PMS_P1;PMS_P2;Temp;Humidity;BMP_temperature;BMP_pressure;BME280_temperature;BME280_humidity;BME280_pressure;Samples;Min_cycle;Max_cycle;Signal;HPM_P1;HPM_P2
2024/01/09 00:00:22;;;;;;;15.70;9.93;;;;;;;-144.30;100.00;86814.13;5072150;28;20194;-55
2024/01/09 00:02:51;;;;;;;15.97;10.73;;;;;;;-144.30;100.00;86816.13;5072116;28;20673;-56
2024/01/09 00:05:18;;;;;;;15.97;10.33;;;;;;;-144.30;100.00;86861.84;5071993;28;20194;-55
2024/01/09 00:07:44;;;;;;;13.17;9.33;;;;;;;-144.30;100.00;86855.88;5071788;28;20199;-56
2024/01/09 00:10:11;;;;;;;14.33;9.83;;;;;;;-144.30;100.00;86855.88;5071881;28;20292;-55
2024/01/09 00:12:38;;;;;;;15.87;10.43;;;;;;;-144.30;100.00;86869.81;5071824;28;20241;-56
2024/01/09 00:15:07;;;;;;;7.87;6.60;;;;;;;-144.30;100.00;86824.06;5072166;28;20607;-58
2024/01/09 00:17:35;;;;;;;14.73;9.33;;;;;;;-144.30;100.00;86714.69;5071815;28;20198;-57
2024/01/09 00:20:03;;;;;;;13.00;8.77;;;;;;;-144.30;100.00;86879.75;5071885;28;20227;-58
2024/01/09 00:22:30;;;;;;;17.00;10.37;;;;;;;-144.30;100.00;86832.03;5071596;28;20196;-58
2024/01/09 00:24:57;;;;;;;15.17;10.13;;;;;;;-144.30;100.00;86830.03;5071661;28;20201;-57
2024/01/09 00:27:24;;;;;;;15.57;9.83;;;;;;;-144.30;100.00;86881.75;5071908;28;20198;-57
2024/01/09 00:29:51;;;;;;;10.10;7.60;;;;;;;-144.30;100.00;86847.94;5071577;28;20194;-58
2024/01/09 00:32:17;;;;;;;15.93;11.00;;;;;;;-144.30;100.00;86873.78;5070326;28;20204;-55
2024/01/09 00:34:44;;;;;;;13.57;9.67;;;;;;;-144.30;100.00;86879.75;5071429;28;20239;-56
2024/01/09 00:37:14;;;;;;;16.33;9.67;;;;;;;-144.30;100.00;86883.72;5071453;28;20220;-56
2024/01/09 00:39:41;;;;;;;15.07;9.63;;;;;;;-144.30;100.00;86867.81;5071480;28;20606;-55
2024/01/09 00:42:08;;;;;;;15.57;10.50;;;;;;;-144.30;100.00;86887.72;5071556;28;20576;-56
2024/01/09 00:44:34;;;;;;;14.03;9.73;;;;;;;-144.30;100.00;86897.66;5071576;28;20622;-57
2024/01/09 00:47:02;;;;;;;16.93;8.17;;;;;;;-144.30;100.00;86883.72;5071245;28;20193;-57
2024/01/09 00:49:29;;;;;;;18.83;11.53;;;;;;;-144.30;100.00;86897.66;5070920;28;20229;-55
2024/01/09 00:51:57;;;;;;;12.97;9.13;;;;;;;-144.30;100.00;86861.84;5071146;28;20208;-55
2024/01/09 00:54:25;;;;;;;16.40;10.37;;;;;;;-144.30;100.00;86889.69;5071175;28;20291;-57
2024/01/09 00:56:52;;;;;;;16.43;10.97;;;;;;;-144.30;100.00;86664.97;5071442;28;20199;-57
2024/01/09 00:59:19;;;;;;;15.37;10.70;;;;;;;-144.30;100.00;86883.72;5070924;28;20224;-57
2024/01/09 01:01:50;;;;;;;13.63;8.97;;;;;;;-144.30;100.00;86887.72;5070698;28;20266;-55
2024/01/09 01:04:17;;;;;;;19.33;11.27;;;;;;;-144.30;100.00;86853.91;5071030;28;20200;-56
2024/01/09 01:06:45;;;;;;;16.53;10.80;;;;;;;-144.30;100.00;86917.53;5071194;28;20203;-57
2024/01/09 01:09:12;;;;;;;15.30;10.07;;;;;;;-144.30;100.00;86875.78;5070767;28;20200;-56
2024/01/09 01:11:41;;;;;;;14.70;10.13;;;;;;;-144.30;100.00;86895.66;5070636;28;20287;-57
2024/01/09 01:14:08;;;;;;;12.97;8.40;;;;;;;-144.30;100.00;86911.56;5070754;28;20192;-57
2024/01/09 01:16:35;;;;;;;13.63;9.20;;;;;;;-144.30;100.00;86935.44;5070491;28;20209;-55
2024/01/09 01:19:02;;;;;;;15.23;9.83;;;;;;;-144.30;100.00;87452.56;5070578;28;20227;-58
2024/01/09 01:21:29;;;;;;;13.13;9.60;;;;;;;-144.30;100.00;86857.88;5070326;28;20202;-55
2024/01/09 01:23:56;;;;;;;13.27;8.83;;;;;;;-144.30;100.00;86889.69;5070694;28;20198;-56
2024/01/09 01:26:23;;;;;;;15.23;9.83;;;;;;;-144.30;100.00;86871.81;5070725;28;20287;-55
2024/01/09 01:28:51;;;;;;;20.60;11.23;;;;;;;-144.30;100.00;86903.63;5070507;28;20192;-56
2024/01/09 01:31:18;;;;;;;16.53;10.43;;;;;;;-144.30;100.00;86889.69;5070622;28;20205;-56
2024/01/09 01:33:45;;;;;;;9.27;6.57;;;;;;;-144.30;100.00;86891.69;5070179;28;20605;-58
2024/01/09 01:36:15;;;;;;;21.07;10.63;;;;;;;-144.30;100.00;86901.63;5070367;28;20210;-58
2024/01/09 01:38:42;;;;;;;14.53;8.20;;;;;;;-144.30;100.00;86911.56;5070058;28;20192;-58
2024/01/09 01:41:09;;;;;;;15.37;9.00;;;;;;;-144.30;100.00;86927.47;5070088;28;20198;-58
2024/01/09 01:43:36;;;;;;;15.00;8.57;;;;;;;-144.30;100.00;86875.78;5069679;28;20199;-57
2024/01/09 01:46:05;;;;;;;13.50;7.67;;;;;;;-144.30;100.00;86947.38;5070326;28;20192;-58
2024/01/09 01:48:33;;;;;;;12.87;8.53;;;;;;;-144.30;100.00;86961.28;5069945;28;20196;-57
2024/01/09 01:51:01;;;;;;;13.13;7.47;;;;;;;-144.30;100.00;86927.47;5070038;28;20206;-59
2024/01/09 01:53:31;;;;;;;12.33;7.70;;;;;;;-144.30;100.00;86951.34;5070359;28;20192;-57
2024/01/09 01:55:58;;;;;;;13.87;8.63;;;;;;;-144.30;100.00;86923.50;5070217;28;20206;-56
2024/01/09 01:58:27;;;;;;;18.37;10.40;;;;;;;-144.30;100.00;86919.53;5070185;28;20196;-55
2024/01/09 02:00:54;;;;;;;14.60;8.63;;;;;;;-144.30;100.00;86951.34;5069689;28;20232;-55
2024/01/09 02:03:23;;;;;;;15.87;10.20;;;;;;;-144.30;100.00;86969.25;5070083;28;20207;-56
2024/01/09 02:05:51;;;;;;;16.57;9.50;;;;;;;-144.30;100.00;86909.59;5070061;28;20203;-56
2024/01/09 02:08:22;;;;;;;21.97;11.90;;;;;;;-144.30;100.00;86832.03;5070143;28;20196;-55
2024/01/09 02:10:49;;;;;;;10.30;6.50;;;;;;;-144.30;100.00;86939.41;5069964;28;20235;-56
2024/01/09 02:13:17;;;;;;;16.17;8.93;;;;;;;-144.30;100.00;86961.28;5069936;28;20589;-56
2024/01/09 02:15:44;;;;;;;14.67;6.83;;;;;;;-144.30;100.00;86877.75;5069776;28;20204;-56
2024/01/09 02:18:11;;;;;;;14.20;7.60;;;;;;;-144.30;100.00;86949.38;5069984;28;20202;-55
2024/01/09 02:20:39;;;;;;;19.03;11.23;;;;;;;-144.30;100.00;86971.25;5069807;28;20246;-55
2024/01/09 02:23:06;;;;;;;20.77;10.80;;;;;;;-144.30;100.00;86953.34;5070059;28;20200;-56
2024/01/09 02:25:33;;;;;;;16.93;10.27;;;;;;;-144.30;100.00;86959.31;5069839;28;20585;-56
2024/01/09 02:28:07;;;;;;;17.77;10.17;;;;;;;-144.30;100.00;86955.31;5070049;28;20196;-56
2024/01/09 02:30:37;;;;;;;13.37;8.50;;;;;;;-144.30;100.00;86923.50;5069765;28;20199;-56
2024/01/09 02:33:05;;;;;;;16.70;10.13;;;;;;;-144.30;100.00;86951.34;5069998;28;20668;-57
2024/01/09 02:35:32;;;;;;;18.63;10.00;;;;;;;-144.30;100.00;86957.31;5069699;28;20279;-56
2024/01/09 02:37:59;;;;;;;18.20;10.67;;;;;;;-144.30;100.00;86943.41;5070043;28;20204;-56
2024/01/09 02:40:26;;;;;;;15.33;10.47;;;;;;;-144.30;100.00;86963.28;5069510;28;20231;-56
2024/01/09 02:42:53;;;;;;;17.80;10.40;;;;;;;-144.30;100.00;86921.53;5069602;28;20196;-55
2024/01/09 02:45:20;;;;;;;17.13;10.80;;;;;;;-144.30;100.00;86951.34;5069646;28;20555;-56
2024/01/09 02:47:48;;;;;;;22.40;12.80;;;;;;;-144.30;100.00;86963.28;5069607;28;20200;-57
2024/01/09 02:50:15;;;;;;;21.20;12.03;;;;;;;-144.30;100.00;86883.72;5069277;28;20200;-56
2024/01/09 02:52:42;;;;;;;27.13;13.70;;;;;;;-144.30;100.00;86931.47;5069292;28;20651;-55
2024/01/09 02:55:09;;;;;;;30.03;16.33;;;;;;;-144.30;100.00;86951.34;5069641;28;20778;-58
2024/01/09 02:57:40;;;;;;;17.90;10.50;;;;;;;-144.30;100.00;86977.22;5073187;28;20199;-55
2024/01/09 03:03:05;;;;;;;17.13;10.73;;;;;;;-144.30;100.00;86937.44;5067667;27;20546;-57
2024/01/09 03:05:32;;;;;;;21.63;11.93;;;;;;;-144.30;100.00;86971.25;5067303;28;20203;-57
2024/01/09 03:07:59;;;;;;;19.33;11.43;;;;;;;-144.30;100.00;86955.31;5067353;28;20208;-57
2024/01/09 03:10:26;;;;;;;22.13;12.20;;;;;;;-144.30;100.00;86931.47;5067150;28;20199;-57
2024/01/09 03:12:53;;;;;;;18.90;11.53;;;;;;;-144.30;100.00;86937.44;5067169;28;20188;-59
2024/01/09 03:15:20;;;;;;;16.80;9.47;;;;;;;-144.30;100.00;86961.28;5067004;28;20199;-61
2024/01/09 03:17:46;;;;;;;22.10;10.77;;;;;;;-144.30;100.00;86927.47;5067006;28;20193;-61
2024/01/09 03:20:15;;;;;;;18.83;10.90;;;;;;;-144.30;100.00;86931.47;5066833;28;20714;-60
2024/01/09 03:22:42;;;;;;;20.53;11.50;;;;;;;-144.30;100.00;86913.56;5066913;28;20731;-59
2024/01/09 03:25:09;;;;;;;21.30;11.93;;;;;;;-144.30;100.00;86965.28;5066992;28;20592;-57
2024/01/09 03:27:36;;;;;;;15.90;9.37;;;;;;;-144.30;100.00;86963.28;5066733;28;20641;-56
2024/01/09 03:30:02;;;;;;;17.93;9.93;;;;;;;-144.30;100.00;86969.25;5066896;28;20206;-58
2024/01/09 03:32:29;;;;;;;15.67;7.90;;;;;;;-144.30;100.00;86983.19;5066535;28;20199;-57
2024/01/09 03:34:56;;;;;;;18.50;9.73;;;;;;;-144.30;100.00;86927.47;5066674;28;20196;-57
2024/01/09 03:37:24;;;;;;;20.97;10.70;;;;;;;-144.30;100.00;86927.47;5066682;28;20196;-60
2024/01/09 03:39:51;;;;;;;19.20;10.07;;;;;;;-144.30;100.00;86963.28;5066267;28;20297;-60
2024/01/09 03:42:18;;;;;;;23.97;11.17;;;;;;;-144.30;100.00;86941.41;5066308;28;20226;-60
2024/01/09 03:44:46;;;;;;;17.23;7.93;;;;;;;-144.30;100.00;87007.03;5066443;28;20664;-60
2024/01/09 03:47:13;;;;;;;20.57;10.90;;;;;;;-144.30;100.00;86941.41;5066433;28;20200;-60
2024/01/09 03:49:40;;;;;;;21.00;11.67;;;;;;;-144.30;100.00;86939.41;5066185;28;20287;-55
2024/01/09 03:52:07;;;;;;;14.43;6.87;;;;;;;-144.30;100.00;86933.44;5066512;28;20191;-55
2024/01/09 03:54:35;;;;;;;18.03;10.80;;;;;;;-144.30;100.00;86935.44;5066635;28;20648;-60
2024/01/09 03:57:02;;;;;;;23.13;12.13;;;;;;;-144.30;100.00;86981.19;5066114;28;20676;-60
2024/01/09 03:59:29;;;;;;;20.10;10.03;;;;;;;-144.30;100.00;86951.34;5066450;28;20715;-57
2024/01/09 04:01:56;;;;;;;19.40;10.90;;;;;;;-144.30;100.00;86951.34;5076857;28;20237;-57
2024/01/09 04:04:24;;;;;;;20.57;9.30;;;;;;;-144.30;100.00;86963.28;5086499;28;20199;-58
2024/01/09 04:06:50;;;;;;;22.83;10.43;;;;;;;-144.30;100.00;86981.19;5085784;28;20314;-59
2024/01/09 04:09:17;;;;;;;18.97;10.83;;;;;;;-144.30;100.00;86971.25;5086257;28;20283;-59
2024/01/09 04:11:46;;;;;;;18.27;10.93;;;;;;;-144.30;100.00;86784.28;5086129;28;20205;-58
2024/01/09 04:14:13;;;;;;;19.33;9.83;;;;;;;-144.30;100.00;86951.34;5067116;28;20205;-58
2024/01/09 04:16:45;;;;;;;22.30;10.50;;;;;;;-144.30;100.00;86935.44;5052604;28;20288;-60
2024/01/09 04:19:12;;;;;;;19.93;11.03;;;;;;;-144.30;100.00;86893.69;5065768;28;20245;-60
2024/01/09 04:21:39;;;;;;;27.90;13.30;;;;;;;-144.30;100.00;86957.31;5072708;28;20223;-59
2024/01/09 04:24:06;;;;;;;19.17;10.43;;;;;;;-144.30;100.00;86939.41;5072790;28;20209;-59
2024/01/09 04:26:33;;;;;;;22.10;9.87;;;;;;;-144.30;100.00;86947.38;5072497;28;20198;-59
2024/01/09 04:29:01;;;;;;;15.17;9.30;;;;;;;-144.30;100.00;86929.47;5072505;28;20196;-58
2024/01/09 04:31:28;;;;;;;23.57;12.60;;;;;;;-144.30;100.00;86975.22;5072531;28;20191;-56
2024/01/09 04:33:55;;;;;;;16.93;8.53;;;;;;;-144.30;100.00;86959.31;5072367;28;20230;-57
2024/01/09 04:36:22;;;;;;;16.03;8.30;;;;;;;-144.30;100.00;86941.41;5072474;28;20208;-57
2024/01/09 04:38:49;;;;;;;17.10;8.97;;;;;;;-144.30;100.00;86987.16;5072290;28;20197;-56
2024/01/09 04:41:17;;;;;;;25.40;13.37;;;;;;;-144.30;100.00;86937.44;5072167;28;20678;-58
2024/01/09 04:43:45;;;;;;;14.23;7.50;;;;;;;-144.30;100.00;86965.28;5070635;28;20203;-58
2024/01/09 04:46:14;;;;;;;24.63;12.33;;;;;;;-144.30;100.00;86971.25;5072468;28;20196;-60
2024/01/09 04:48:41;;;;;;;16.63;9.53;;;;;;;-144.30;100.00;86915.56;5071284;28;20587;-58
2024/01/09 04:51:08;;;;;;;6.33;4.47;;;;;;;-144.30;100.00;86983.19;5072074;28;20202;-58
2024/01/09 04:53:35;;;;;;;23.97;12.53;;;;;;;-144.30;100.00;86971.25;5071856;28;20211;-58
2024/01/09 04:56:01;;;;;;;14.43;7.87;;;;;;;-144.30;100.00;86947.38;5072005;28;20202;-57
2024/01/09 04:58:28;;;;;;;29.53;12.53;;;;;;;-144.30;100.00;86973.22;5072093;28;20197;-58
2024/01/09 05:00:56;;;;;;;27.20;15.03;;;;;;;-144.30;100.00;86961.28;5071576;28;20199;-57
2024/01/09 05:03:25;;;;;;;23.80;11.37;;;;;;;-144.30;100.00;86987.16;5071846;28;20636;-59
2024/01/09 05:05:52;;;;;;;24.77;10.73;;;;;;;-144.30;100.00;86959.31;5071841;28;20237;-58
2024/01/09 05:08:19;;;;;;;27.90;13.70;;;;;;;-144.30;100.00;86963.28;5070391;28;20192;-58
2024/01/09 05:10:45;;;;;;;20.43;10.67;;;;;;;-144.30;100.00;86983.19;5051348;28;20203;-59
2024/01/09 05:13:12;;;;;;;27.60;13.27;;;;;;;-144.30;100.00;86991.13;5051883;28;20555;-58
2024/01/09 05:15:39;;;;;;;24.03;12.07;;;;;;;-144.30;100.00;86973.22;5051594;28;20197;-60
2024/01/09 05:18:07;;;;;;;21.03;11.13;;;;;;;-144.30;100.00;86965.28;5051403;28;20201;-60
2024/01/09 05:20:35;;;;;;;24.50;11.83;;;;;;;-144.30;100.00;86905.59;5050930;28;20265;-59
2024/01/09 05:23:02;;;;;;;16.77;7.70;;;;;;;-144.30;100.00;86740.53;5050398;28;20227;-60
2024/01/09 05:25:29;;;;;;;25.97;13.53;;;;;;;-144.30;100.00;86999.09;5050832;28;20276;-54
2024/01/09 05:27:57;;;;;;;19.27;9.43;;;;;;;-144.30;100.00;86820.09;5060268;28;20229;-55
2024/01/09 05:30:25;;;;;;;25.43;13.03;;;;;;;-144.30;100.00;86925.50;5069530;28;20727;-55
2024/01/09 05:32:52;;;;;;;31.03;13.83;;;;;;;-144.30;100.00;86983.19;5069998;28;20198;-54
2024/01/09 05:35:19;;;;;;;21.67;11.90;;;;;;;-144.30;100.00;86975.22;5069946;28;20199;-55
2024/01/09 05:37:47;;;;;;;18.00;8.87;;;;;;;-144.30;100.00;86967.25;5069864;28;20198;-55
2024/01/09 05:40:14;;;;;;;29.13;13.00;;;;;;;-144.30;100.00;86959.31;5071098;28;20606;-60
2024/01/09 05:42:43;;;;;;;26.17;13.67;;;;;;;-144.30;100.00;86937.44;5070661;28;20224;-61
2024/01/09 05:45:11;;;;;;;20.70;11.53;;;;;;;-144.30;100.00;86967.25;5070938;28;20197;-60
2024/01/09 05:47:38;;;;;;;27.40;14.30;;;;;;;-144.30;100.00;86959.31;5070916;28;20202;-60
2024/01/09 05:50:06;;;;;;;29.87;14.23;;;;;;;-144.30;100.00;86969.25;5071019;28;20610;-60
2024/01/09 05:52:35;;;;;;;24.67;12.47;;;;;;;-144.30;100.00;87182.06;5070844;28;20286;-60
2024/01/09 05:55:05;;;;;;;25.97;12.97;;;;;;;-144.30;100.00;86925.50;5071252;28;20538;-60
2024/01/09 05:57:32;;;;;;;25.43;13.47;;;;;;;-144.30;100.00;86969.25;5070945;28;20198;-60
2024/01/09 05:59:59;;;;;;;25.67;13.40;;;;;;;-144.30;100.00;86973.22;5070963;28;20205;-60
2024/01/09 06:02:26;;;;;;;29.73;14.30;;;;;;;-144.30;100.00;86927.47;5070498;28;20231;-60
2024/01/09 06:04:53;;;;;;;13.40;8.00;;;;;;;-144.30;100.00;86975.22;5070521;28;20199;-61
2024/01/09 06:07:20;;;;;;;23.30;10.37;;;;;;;-144.30;100.00;86927.47;5070935;28;20204;-60
2024/01/09 06:09:47;;;;;;;19.67;9.83;;;;;;;-144.30;100.00;86987.16;5070682;28;20199;-61
2024/01/09 06:12:16;;;;;;;23.80;12.13;;;;;;;-144.30;100.00;86959.31;5070819;28;20711;-60
2024/01/09 06:14:42;;;;;;;29.70;15.30;;;;;;;-144.30;100.00;86947.38;5070267;28;20810;-54
2024/01/09 06:17:09;;;;;;;29.73;15.70;;;;;;;-144.30;100.00;86973.22;5070378;28;20673;-55
2024/01/09 06:19:36;;;;;;;23.23;10.17;;;;;;;-144.30;100.00;86973.22;5070226;28;20204;-56
2024/01/09 06:22:03;;;;;;;25.53;11.90;;;;;;;-144.30;100.00;86963.28;5070397;28;20226;-56
2024/01/09 06:24:32;;;;;;;26.00;13.83;;;;;;;-144.30;100.00;86983.19;5070338;28;20284;-61
2024/01/09 06:26:59;;;;;;;23.40;11.50;;;;;;;-144.30;100.00;86939.41;5070358;28;20236;-60
2024/01/09 06:29:30;;;;;;;11.17;7.20;;;;;;;-144.30;100.00;86971.25;5070390;28;20205;-60
2024/01/09 06:31:57;;;;;;;22.00;11.67;;;;;;;-144.30;100.00;86973.22;5070638;28;20584;-60
2024/01/09 06:34:24;;;;;;;30.00;14.00;;;;;;;-144.30;100.00;86979.19;5070544;28;20196;-60
2024/01/09 06:36:51;;;;;;;30.73;14.70;;;;;;;-144.30;100.00;86963.28;5069912;28;20213;-59
2024/01/09 06:39:18;;;;;;;22.77;10.73;;;;;;;-144.30;100.00;86959.31;5063927;28;20212;-60
2024/01/09 06:41:45;;;;;;;17.00;7.60;;;;;;;-144.30;100.00;86959.31;5059695;28;20646;-55
2024/01/09 06:44:12;;;;;;;27.43;12.27;;;;;;;-144.30;100.00;86971.25;5061980;28;20200;-55
2024/01/09 06:46:40;;;;;;;31.93;12.73;;;;;;;-144.30;100.00;86957.31;5060645;28;20238;-55
2024/01/09 06:49:07;;;;;;;19.03;8.60;;;;;;;-144.30;100.00;86939.41;5062557;28;20231;-55
2024/01/09 06:51:35;;;;;;;23.50;12.10;;;;;;;-144.30;100.00;86949.38;5061626;28;20203;-56
2024/01/09 06:54:01;;;;;;;15.60;9.23;;;;;;;-144.30;100.00;86921.53;5059347;28;20597;-55
2024/01/09 06:56:28;;;;;;;25.77;12.80;;;;;;;-144.30;100.00;86967.25;5068567;28;20224;-55
2024/01/09 06:58:55;;;;;;;26.00;13.03;;;;;;;-144.30;100.00;86939.41;5070325;28;20197;-60
2024/01/09 07:01:22;;;;;;;26.07;13.27;;;;;;;-144.30;100.00;86919.53;5069979;28;20749;-61
2024/01/09 07:03:50;;;;;;;19.20;10.23;;;;;;;-144.30;100.00;86959.31;5069850;28;20609;-61
2024/01/09 07:06:17;;;;;;;23.63;12.73;;;;;;;-144.30;100.00;86961.28;5070145;28;20206;-55
2024/01/09 07:08:44;;;;;;;23.37;12.77;;;;;;;-144.30;100.00;86951.34;5069732;28;20263;-55
2024/01/09 07:11:11;;;;;;;26.87;13.73;;;;;;;-144.30;100.00;86957.31;5069677;28;20587;-60
2024/01/09 07:13:38;;;;;;;30.47;15.03;;;;;;;-144.30;100.00;86941.41;5069366;28;20582;-59
2024/01/09 07:16:06;;;;;;;25.63;11.87;;;;;;;-144.30;100.00;86951.34;5069688;28;20199;-60
2024/01/09 07:18:33;;;;;;;24.07;12.43;;;;;;;-144.30;100.00;86959.31;5069755;28;20197;-59
2024/01/09 07:21:01;;;;;;;26.87;12.27;;;;;;;-144.30;100.00;86973.22;5069851;28;20199;-59
2024/01/09 07:23:28;;;;;;;25.77;13.50;;;;;;;-144.30;100.00;86955.31;5069542;28;20221;-61
2024/01/09 07:25:55;;;;;;;24.57;11.40;;;;;;;-144.30;100.00;86959.31;5069482;28;20198;-59
2024/01/09 07:28:22;;;;;;;31.00;13.57;;;;;;;-144.30;100.00;86981.19;5069967;28;20716;-60
2024/01/09 07:30:49;;;;;;;29.80;13.20;;;;;;;-144.30;100.00;86939.41;5069923;28;20299;-59
2024/01/09 07:33:15;;;;;;;25.30;11.30;;;;;;;-144.30;100.00;86965.28;5069499;28;20206;-60
2024/01/09 07:35:42;;;;;;;24.20;12.53;;;;;;;-144.30;100.00;86951.34;5069339;28;20204;-60
2024/01/09 07:38:11;;;;;;;23.00;12.80;;;;;;;-144.30;100.00;86943.41;5069489;28;20202;-59
2024/01/09 07:40:38;;;;;;;28.13;11.77;;;;;;;-144.30;100.00;86965.28;5069155;28;20203;-56
2024/01/09 07:43:04;;;;;;;24.53;12.73;;;;;;;-144.30;100.00;86969.25;5067036;28;20232;-55
2024/01/09 07:45:31;;;;;;;20.77;9.60;;;;;;;-144.30;99.18;86919.53;5064273;28;20263;-56
2024/01/09 07:48:00;;;;;;;17.87;9.13;;;;;;;-144.30;98.11;86923.50;5057312;28;20211;-56
2024/01/09 07:50:27;;;;;;;14.27;7.63;;;;;;;-144.30;97.05;86947.38;5062951;28;20202;-56
2024/01/09 07:52:53;;;;;;;19.77;10.87;;;;;;;-144.30;97.44;86919.53;5070379;28;20191;-55
2024/01/09 07:55:22;;;;;;;22.23;10.60;;;;;;;-144.30;97.54;86915.56;5059883;28;20206;-56
2024/01/09 07:57:49;;;;;;;20.83;10.07;;;;;;;-144.30;96.57;86959.31;5063947;28;20207;-56
2024/01/09 08:00:16;;;;;;;19.87;10.60;;;;;;;-144.30;97.32;86923.50;5068835;28;20222;-56
2024/01/09 08:02:43;;;;;;;20.33;11.10;;;;;;;-144.30;97.59;86951.34;5059422;28;20233;-55
2024/01/09 08:05:10;;;;;;;22.20;11.33;;;;;;;-144.30;97.98;86919.53;5052901;28;20233;-60
2024/01/09 08:07:36;;;;;;;23.80;12.37;;;;;;;-144.30;97.43;86967.25;5052717;28;20234;-60
2024/01/09 08:10:03;;;;;;;21.97;12.13;;;;;;;-144.30;96.51;86963.28;5052494;28;20205;-60
2024/01/09 08:12:32;;;;;;;24.87;11.67;;;;;;;-144.30;97.46;86905.59;5052808;28;20199;-59
2024/01/09 08:14:59;;;;;;;24.33;11.87;;;;;;;-144.30;96.80;86919.53;5071942;28;20198;-56
2024/01/09 08:17:26;;;;;;;17.80;10.73;;;;;;;-144.30;96.92;86919.53;5072389;28;20257;-56
2024/01/09 08:19:53;;;;;;;24.20;11.00;;;;;;;-144.30;96.51;86951.34;5072451;28;20716;-57
2024/01/09 08:22:20;;;;;;;26.70;13.15;;;;;;;-144.30;97.34;86943.41;5071195;28;20325;-56
2024/01/09 08:24:47;;;;;;;12.43;7.90;;;;;;;-144.30;97.78;86931.47;5072388;28;20298;-55
2024/01/09 08:27:13;;;;;;;18.60;9.03;;;;;;;-144.30;96.26;86915.56;5072460;28;20204;-56
2024/01/09 08:29:44;;;;;;;14.70;8.13;;;;;;;-144.30;96.25;86925.50;5072458;28;20287;-56
2024/01/09 08:32:15;;;;;;;18.23;9.37;;;;;;;-144.30;94.32;86965.28;5072512;28;20675;-55
2024/01/09 08:34:42;;;;;;;19.67;10.33;;;;;;;-144.30;94.94;86941.41;5072188;28;20678;-55
2024/01/09 08:37:09;;;;;;;22.47;10.33;;;;;;;-144.30;95.70;86915.56;5072165;28;20217;-56
2024/01/09 08:39:35;;;;;;;18.53;10.03;;;;;;;-144.30;95.07;86941.41;5071973;28;20269;-56
2024/01/09 08:42:02;;;;;;;23.43;12.43;;;;;;;-144.30;95.45;86919.53;5072225;28;20670;-56
2024/01/09 08:44:29;;;;;;;16.93;9.80;;;;;;;-144.30;93.42;86979.19;5071746;28;20228;-56
2024/01/09 08:46:57;;;;;;;22.07;9.67;;;;;;;-144.30;93.71;86965.28;5071938;28;20201;-56
2024/01/09 08:49:24;;;;;;;13.97;7.90;;;;;;;-144.30;94.26;86899.66;5071914;28;20205;-60
2024/01/09 08:51:51;;;;;;;17.30;9.53;;;;;;;-144.30;95.25;86943.41;5071642;28;20203;-61
2024/01/09 08:54:18;;;;;;;20.30;10.30;;;;;;;-144.30;96.06;86921.53;5071579;28;20201;-59
2024/01/09 08:56:45;;;;;;;24.13;13.37;;;;;;;-144.30;96.14;86965.28;5071719;28;20203;-60
2024/01/09 08:59:13;;;;;;;27.10;13.43;;;;;;;-144.30;96.83;86917.53;5071686;28;20205;-60
2024/01/09 09:01:39;;;;;;;23.47;10.93;;;;;;;-144.30;96.50;86887.72;5071399;28;20710;-60
2024/01/09 09:04:08;;;;;;;20.03;11.57;;;;;;;-144.30;96.63;86937.44;5071436;28;20317;-60
2024/01/09 09:06:35;;;;;;;19.83;11.40;;;;;;;-144.30;96.14;86927.47;5071377;28;20196;-59
2024/01/09 09:09:01;;;;;;;20.23;11.17;;;;;;;-144.30;97.62;86935.44;5071739;28;20199;-60
2024/01/09 09:11:28;;;;;;;18.47;9.60;;;;;;;-144.30;96.20;86963.28;5071829;28;20204;-60
2024/01/09 09:13:55;;;;;;;20.57;10.90;;;;;;;-144.30;96.22;86935.44;5071484;28;20743;-60
2024/01/09 09:16:23;;;;;;;23.43;11.10;;;;;;;-144.30;95.12;86965.28;5071408;28;20670;-56
2024/01/09 09:18:50;;;;;;;19.03;10.10;;;;;;;-144.30;94.77;86919.53;5071230;28;20214;-57
2024/01/09 09:21:19;;;;;;;11.30;6.23;;;;;;;-144.30;94.57;86945.38;5071329;28;20212;-56
2024/01/09 09:23:46;;;;;;;12.03;7.00;;;;;;;-144.30;93.32;86937.44;5071374;28;20598;-56
2024/01/09 09:26:13;;;;;;;12.10;7.60;;;;;;;-144.30;92.93;86941.41;5071330;28;20223;-55
2024/01/09 09:28:43;;;;;;;15.23;9.33;;;;;;;-144.30;93.51;86927.47;5071294;28;20674;-56
2024/01/09 09:31:10;;;;;;;16.63;8.27;;;;;;;-144.30;93.54;86899.66;5071032;28;20511;-54
2024/01/09 09:33:37;;;;;;;20.23;10.97;;;;;;;-144.30;94.32;86941.41;5071120;28;20220;-55
2024/01/09 09:36:05;;;;;;;14.40;8.63;;;;;;;-144.30;92.48;86935.44;5071231;28;20501;-54
2024/01/09 09:38:35;;;;;;;14.57;8.00;;;;;;;-144.30;91.81;86879.75;5067504;28;20196;-56
2024/01/09 09:41:05;;;;;;;17.67;8.80;;;;;;;-144.30;92.15;86957.31;5052015;28;20760;-55
2024/01/09 09:43:34;;;;;;;15.93;8.33;;;;;;;-144.30;92.22;86867.81;5050850;28;20315;-53
2024/01/09 09:46:02;;;;;;;68.13;29.23;;;;;;;-144.30;92.83;86947.38;5050915;28;20199;-55
2024/01/09 09:48:30;;;;;;;21.87;10.60;;;;;;;-144.30;93.15;86961.28;5051689;28;20207;-56
2024/01/09 09:50:57;;;;;;;12.97;8.37;;;;;;;-144.30;93.83;86919.53;5070699;28;20225;-61
2024/01/09 09:53:27;;;;;;;17.50;8.73;;;;;;;-144.30;93.21;86941.41;5070252;28;20202;-60
2024/01/09 09:55:57;;;;;;;17.93;9.03;;;;;;;-144.30;93.87;86889.69;5070672;28;20284;-54
2024/01/09 09:58:24;;;;;;;10.03;6.63;;;;;;;-144.30;93.91;86935.44;5070254;28;20224;-61
2024/01/09 10:00:55;;;;;;;11.57;7.63;;;;;;;-144.30;93.54;86931.47;5070090;28;20213;-61
2024/01/09 10:03:28;;;;;;;13.77;7.77;;;;;;;-144.30;93.10;86973.22;5070287;28;20325;-61
2024/01/09 10:05:56;;;;;;;9.53;5.80;;;;;;;-144.30;92.49;86851.91;5070437;28;20620;-61
2024/01/09 10:08:25;;;;;;;18.80;9.13;;;;;;;-144.30;92.37;86951.34;5053374;28;20195;-55
2024/01/09 10:10:53;;;;;;;12.53;8.30;;;;;;;-144.30;92.94;86939.41;5049553;28;20734;-54
2024/01/09 10:13:22;;;;;;;17.40;9.53;;;;;;;-144.30;94.18;86973.22;5050534;28;20268;-53
2024/01/09 10:15:58;;;;;;;21.60;9.77;;;;;;;-144.30;93.45;86867.81;5050360;28;20202;-55
2024/01/09 10:18:29;;;;;;;19.70;9.67;;;;;;;-144.30;94.55;86935.44;5050310;28;20845;-55
2024/01/09 10:20:55;;;;;;;20.67;10.33;;;;;;;-144.30;93.94;86895.66;5050345;28;20260;-55
2024/01/09 10:23:22;;;;;;;16.40;7.57;;;;;;;-144.30;93.14;86943.41;5050021;28;20216;-59
2024/01/09 10:25:53;;;;;;;19.70;10.27;;;;;;;-144.30;93.33;86935.44;5050180;28;20200;-61
2024/01/09 10:28:22;;;;;;;18.53;9.13;;;;;;;-144.30;93.54;86887.72;5050550;28;20199;-60
2024/01/09 10:30:52;;;;;;;20.17;10.03;;;;;;;-144.30;92.79;86973.22;5049865;28;20254;-60
2024/01/09 10:33:20;;;;;;;20.17;8.97;;;;;;;-144.30;93.02;86963.28;5049977;28;20193;-61
2024/01/09 10:35:47;;;;;;;18.40;9.80;;;;;;;-144.30;92.16;86935.44;5049700;28;20646;-55
2024/01/09 10:38:14;;;;;;;22.10;9.53;;;;;;;-144.30;93.73;86943.41;5050232;28;20611;-60
2024/01/09 10:40:40;;;;;;;21.27;10.53;;;;;;;-144.30;93.63;86963.28;5050074;28;20198;-60
2024/01/09 10:43:08;;;;;;;16.40;9.30;;;;;;;-144.30;93.10;86963.28;5049881;28;20199;-61
2024/01/09 10:45:37;;;;;;;6.57;4.70;;;;;;;-144.30;91.73;86943.41;5049933;28;20202;-61
2024/01/09 10:48:06;;;;;;;18.30;8.80;;;;;;;-144.30;92.65;86863.84;5050111;28;20581;-61
2024/01/09 10:50:34;;;;;;;17.93;10.23;;;;;;;-144.30;93.28;86935.44;5050234;28;20688;-59
2024/01/09 10:53:02;;;;;;;18.47;8.63;;;;;;;-144.30;92.57;86935.44;5049948;28;20198;-60
2024/01/09 10:55:30;;;;;;;15.33;8.83;;;;;;;-144.30;92.96;86959.31;5049850;28;20208;-61
2024/01/09 10:57:58;;;;;;;13.23;8.03;;;;;;;-144.30;92.79;86903.63;5049843;28;20698;-60
2024/01/09 11:00:26;;;;;;;12.33;6.33;;;;;;;-144.30;92.21;86963.28;5049868;28;20677;-61
2024/01/09 11:02:55;;;;;;;17.20;8.60;;;;;;;-144.30;91.21;86967.25;5049389;28;20319;-61